createdAt,value
2019-03-03T00:00:21.513Z,27.80
2019-03-03T00:02:53.460Z,22.03
2019-03-03T00:05:23.886Z,26.27
2019-03-03T00:07:54.190Z,28.40
2019-03-03T00:10:24.612Z,24.13
2019-03-03T00:12:54.986Z,20.20
2019-03-03T00:15:26.511Z,24.93
2019-03-03T00:17:56.812Z,24.27
2019-03-03T00:20:27.133Z,23.73
2019-03-03T00:22:57.461Z,23.60
2019-03-03T00:25:27.686Z,21.33
2019-03-03T00:27:58.053Z,31.33
2019-03-03T00:30:30.423Z,30.83
2019-03-03T00:33:00.717Z,23.00
2019-03-03T00:35:31.693Z,22.63
2019-03-03T00:38:25.034Z,25.77
2019-03-03T00:41:19.064Z,26.47
2019-03-03T00:44:13.866Z,33.37
2019-03-03T00:47:01.931Z,27.70
2019-03-03T00:49:51.219Z,27.73
2019-03-03T00:52:26.986Z,24.73
2019-03-03T00:55:22.367Z,24.63
2019-03-03T00:58:14.608Z,22.30
2019-03-03T01:00:50.988Z,29.03
2019-03-03T01:03:24.784Z,28.37
2019-03-03T01:06:03.825Z,35.43
2019-03-03T01:08:53.246Z,34.53
2019-03-03T01:11:42.582Z,31.33
2019-03-03T01:14:40.690Z,24.63
2019-03-03T01:17:28.848Z,27.37
2019-03-03T01:20:06.357Z,36.07
2019-03-03T01:22:54.855Z,33.23
2019-03-03T01:25:25.139Z,30.37
2019-03-03T01:27:55.443Z,30.20
2019-03-03T01:30:25.800Z,25.73
2019-03-03T01:32:56.222Z,27.63
2019-03-03T01:35:26.528Z,33.13
2019-03-03T01:37:58.670Z,31.97
2019-03-03T01:40:29.065Z,32.07
2019-03-03T01:42:59.474Z,33.13
2019-03-03T01:45:29.784Z,34.23
2019-03-03T01:48:00.156Z,36.07
2019-03-03T01:50:30.648Z,41.50
2019-03-03T01:53:01.110Z,30.80
2019-03-03T01:55:31.505Z,33.70
2019-03-03T01:58:01.800Z,34.33
2019-03-03T02:00:33.465Z,33.37
2019-03-03T02:03:04.988Z,32.17
2019-03-03T02:05:36.700Z,39.40
2019-03-03T02:08:08.113Z,32.43
2019-03-03T02:10:40.259Z,36.47
2019-03-03T02:13:10.593Z,28.70
2019-03-03T02:15:41.080Z,49.97
2019-03-03T02:18:11.531Z,41.17
2019-03-03T02:20:41.929Z,35.03
2019-03-03T02:23:32.893Z,40.03
2019-03-03T02:25:51.844Z,38.40
2019-03-03T02:28:22.219Z,40.33
2019-03-03T02:30:52.546Z,38.33
2019-03-03T02:33:23.212Z,46.77
2019-03-03T02:35:53.635Z,40.13
2019-03-03T02:38:25.790Z,30.20
2019-03-03T02:41:01.501Z,37.80
2019-03-03T02:43:38.432Z,39.80
2019-03-03T02:46:08.774Z,34.53
2019-03-03T02:48:40.198Z,43.17
2019-03-03T02:51:10.572Z,43.53
2019-03-03T02:53:41.097Z,50.23
2019-03-03T02:56:12.987Z,43.17
2019-03-03T02:58:43.448Z,45.17
2019-03-03T03:01:18.590Z,40.77
2019-03-03T03:03:48.944Z,44.43
2019-03-03T03:06:25.962Z,42.00
2019-03-03T03:09:14.527Z,34.43
2019-03-03T03:12:10.844Z,37.43
2019-03-03T03:15:18.608Z,38.83
2019-03-03T03:18:06.655Z,35.00
2019-03-03T03:20:56.292Z,41.43
2019-03-03T03:23:33.832Z,39.77
2019-03-03T03:26:26.241Z,34.63
2019-03-03T03:29:23.932Z,36.17
2019-03-03T03:32:22.323Z,35.20
2019-03-03T03:35:00.919Z,37.83
2019-03-03T03:37:57.521Z,31.60
2019-03-03T03:40:35.350Z,46.23
2019-03-03T03:43:12.653Z,37.53
2019-03-03T03:46:09.309Z,39.07
2019-03-03T03:49:13.878Z,47.00
2019-03-03T03:52:12.016Z,40.00
2019-03-03T03:55:04.253Z,36.80
2019-03-03T03:57:45.396Z,47.67
2019-03-03T04:00:27.732Z,37.63
2019-03-03T04:03:14.448Z,37.90
2019-03-03T04:06:07.166Z,49.47
2019-03-03T04:08:44.471Z,45.33
2019-03-03T04:11:33.840Z,46.17
2019-03-03T04:14:27.333Z,39.33
2019-03-03T04:17:22.618Z,50.77
2019-03-03T04:20:11.939Z,50.37
2019-03-03T04:23:01.138Z,49.87
2019-03-03T04:25:49.247Z,56.87
2019-03-03T04:28:25.908Z,52.20
2019-03-03T04:31:05.465Z,53.77
2019-03-03T04:34:03.837Z,55.07
2019-03-03T04:37:05.344Z,49.77
2019-03-03T04:39:44.521Z,55.43
2019-03-03T04:42:24.941Z,55.90
2019-03-03T04:45:11.139Z,60.63
2019-03-03T04:48:03.204Z,71.53
2019-03-03T04:50:42.485Z,53.73
2019-03-03T04:53:37.913Z,58.17
2019-03-03T04:56:33.395Z,62.77
2019-03-03T04:59:31.929Z,59.70
2019-03-03T05:02:15.837Z,59.83
2019-03-03T05:05:02.926Z,62.20
2019-03-03T05:07:58.163Z,52.73
2019-03-03T05:10:56.739Z,52.70
2019-03-03T05:13:31.525Z,62.07
2019-03-03T05:16:26.452Z,56.67
2019-03-03T05:19:15.786Z,72.47
2019-03-03T05:21:50.383Z,61.70
2019-03-03T05:24:20.696Z,51.57
2019-03-03T05:26:50.999Z,62.87
2019-03-03T05:29:21.370Z,70.63
2019-03-03T05:31:51.734Z,70.00
2019-03-03T05:34:22.142Z,67.90
2019-03-03T05:36:59.873Z,61.43
2019-03-03T05:39:30.184Z,82.73
2019-03-03T05:42:00.553Z,69.30
2019-03-03T05:44:30.849Z,61.83
2019-03-03T05:47:01.168Z,74.33
2019-03-03T05:49:31.436Z,77.53
2019-03-03T05:52:03.145Z,61.47
2019-03-03T05:54:35.521Z,69.90
2019-03-03T05:57:05.899Z,60.90
2019-03-03T05:59:36.269Z,62.90
2019-03-03T06:02:06.567Z,80.80
2019-03-03T06:04:36.857Z,68.83
2019-03-03T06:07:07.213Z,78.60
2019-03-03T06:09:37.591Z,66.43
2019-03-03T06:12:08.052Z,82.73
2019-03-03T06:14:38.449Z,66.80
2019-03-03T06:17:08.762Z,70.60
2019-03-03T06:19:40.740Z,75.57
2019-03-03T06:22:11.146Z,72.13
2019-03-03T06:24:41.658Z,71.57
2019-03-03T06:27:12.171Z,62.40
2019-03-03T06:29:44.436Z,73.00
2019-03-03T06:32:16.156Z,60.40
2019-03-03T06:34:49.315Z,75.17
2019-03-03T06:37:19.772Z,65.43
2019-03-03T06:39:50.652Z,73.10
2019-03-03T06:42:21.024Z,73.07
2019-03-03T06:44:53.193Z,62.43
2019-03-03T06:47:23.637Z,66.17
2019-03-03T06:49:54.085Z,69.87
2019-03-03T06:52:27.007Z,58.53
2019-03-03T06:54:57.521Z,68.57
2019-03-03T06:57:28.060Z,52.83
2019-03-03T06:59:58.566Z,48.93
2019-03-03T07:02:28.991Z,50.23
2019-03-03T07:04:59.656Z,36.93
2019-03-03T07:07:30.175Z,29.93
2019-03-03T07:10:00.595Z,34.33
2019-03-03T07:12:31.124Z,27.93
2019-03-03T07:17:29.668Z,20.03
2019-03-03T07:20:00.088Z,18.00
2019-03-03T07:22:37.765Z,14.73
2019-03-03T07:25:10.053Z,15.53
2019-03-03T07:27:40.517Z,18.83
2019-03-03T07:30:13.157Z,20.30
2019-03-03T07:33:09.983Z,12.60
2019-03-03T07:35:42.070Z,19.30
2019-03-03T07:38:15.652Z,12.50
2019-03-03T07:40:47.866Z,20.60
2019-03-03T07:43:18.574Z,19.03
2019-03-03T07:45:49.036Z,16.13
2019-03-03T07:48:19.769Z,23.47
2019-03-03T07:50:50.368Z,22.43
2019-03-03T07:53:22.337Z,17.47
2019-03-03T07:55:52.801Z,22.80
2019-03-03T07:58:23.189Z,15.30
2019-03-03T08:00:53.589Z,16.70
2019-03-03T08:03:24.148Z,14.83
2019-03-03T08:05:54.611Z,16.33
2019-03-03T08:08:25.041Z,11.73
2019-03-03T08:10:56.489Z,19.00
2019-03-03T08:13:26.905Z,13.93
2019-03-03T08:15:57.694Z,13.83
2019-03-03T08:18:29.874Z,15.23
2019-03-03T08:21:06.083Z,16.33
2019-03-03T08:23:36.942Z,12.73
2019-03-03T08:26:10.525Z,11.03
2019-03-03T08:28:49.523Z,10.90
2019-03-03T08:31:20.004Z,10.87
2019-03-03T08:33:51.533Z,15.47
2019-03-03T08:36:40.277Z,14.27
2019-03-03T08:39:13.756Z,15.07
2019-03-03T08:41:48.467Z,12.93
2019-03-03T08:44:46.773Z,14.33
2019-03-03T08:47:39.528Z,14.83
2019-03-03T08:50:27.289Z,24.10
2019-03-03T08:53:06.840Z,22.63
2019-03-03T08:55:47.161Z,18.73
2019-03-03T08:58:42.999Z,23.40
2019-03-03T09:01:42.213Z,13.47
2019-03-03T09:04:28.557Z,22.70
2019-03-03T09:07:21.202Z,24.53
2019-03-03T09:09:58.464Z,16.57
2019-03-03T09:12:37.539Z,22.57
2019-03-03T09:15:19.857Z,19.67
2019-03-03T09:18:05.925Z,17.23
2019-03-03T09:20:57.998Z,23.70
2019-03-03T09:23:50.140Z,21.77
2019-03-03T09:26:55.197Z,17.57
2019-03-03T09:29:39.071Z,16.90
2019-03-03T09:32:20.879Z,20.50
2019-03-03T09:35:11.976Z,15.60
2019-03-03T09:38:10.500Z,19.53
2019-03-03T09:41:00.003Z,19.60
2019-03-03T09:43:54.990Z,27.03
2019-03-03T09:46:47.367Z,19.23
2019-03-03T09:49:29.964Z,16.80
2019-03-03T09:52:18.173Z,17.33
2019-03-03T09:55:19.615Z,15.67
2019-03-03T09:58:14.854Z,18.90
2019-03-03T10:01:09.784Z,19.50
2019-03-03T10:04:05.223Z,24.33
2019-03-03T10:06:53.202Z,17.63
2019-03-03T10:09:35.112Z,9.37
2019-03-03T10:12:26.079Z,12.13
2019-03-03T10:15:14.452Z,17.97
2019-03-03T10:17:57.056Z,27.37
2019-03-03T10:20:49.085Z,16.03
2019-03-03T10:23:38.499Z,18.70
2019-03-03T10:26:30.617Z,16.40
2019-03-03T10:29:07.637Z,13.50
2019-03-03T10:31:58.563Z,13.97
2019-03-03T10:34:50.770Z,11.53
2019-03-03T10:37:40.067Z,12.50
2019-03-03T10:40:41.610Z,10.03
2019-03-03T10:43:37.979Z,11.07
2019-03-03T10:46:28.238Z,14.20
2019-03-03T10:49:12.860Z,8.20
2019-03-03T10:52:04.029Z,8.57
2019-03-03T10:54:57.595Z,7.83
2019-03-03T10:57:54.392Z,5.97
2019-03-03T11:00:51.277Z,6.10
2019-03-03T11:03:31.470Z,7.47
2019-03-03T11:06:21.568Z,8.67
2019-03-03T11:09:30.178Z,7.30
2019-03-03T11:12:24.615Z,5.83
2019-03-03T11:15:33.498Z,2.93
2019-03-03T11:18:23.365Z,5.40
2019-03-03T11:21:15.383Z,12.43
2019-03-03T11:24:01.482Z,14.73
2019-03-03T11:26:59.827Z,15.17
2019-03-03T11:29:35.799Z,15.63
2019-03-03T11:32:15.043Z,18.57
2019-03-03T11:35:07.174Z,20.40
2019-03-03T11:38:14.951Z,23.97
2019-03-03T11:41:11.610Z,22.27
2019-03-03T11:44:00.944Z,19.37
2019-03-03T11:46:59.498Z,30.07
2019-03-03T11:49:35.585Z,29.90
2019-03-03T11:52:16.776Z,20.93
2019-03-03T11:54:55.930Z,35.33
2019-03-03T11:57:35.680Z,25.03
2019-03-03T12:00:24.822Z,22.53
2019-03-03T12:03:31.191Z,30.50
2019-03-03T12:06:15.801Z,25.33
2019-03-03T12:09:11.604Z,27.97
2019-03-03T12:12:10.631Z,31.17
2019-03-03T12:15:03.237Z,32.60
2019-03-03T12:17:55.661Z,27.50
2019-03-03T12:20:52.899Z,21.50
2019-03-03T12:23:57.345Z,30.33
2019-03-03T12:26:49.926Z,26.97
2019-03-03T12:29:35.887Z,23.00
2019-03-03T12:32:26.985Z,22.13
2019-03-03T12:35:03.310Z,22.80
2019-03-03T12:37:55.969Z,23.90
2019-03-03T12:40:44.057Z,26.50
2019-03-03T12:43:33.064Z,28.40
2019-03-03T12:46:25.525Z,25.07
2019-03-03T12:49:20.820Z,27.40
2019-03-03T12:52:09.664Z,24.97
2019-03-03T12:54:55.256Z,22.87
2019-03-03T12:57:37.761Z,23.60
2019-03-03T13:00:44.112Z,21.73
2019-03-03T13:03:24.914Z,18.33
2019-03-03T13:06:24.107Z,23.23
2019-03-03T13:09:14.735Z,25.27
2019-03-03T13:12:01.031Z,20.43
2019-03-03T13:15:00.122Z,20.43
2019-03-03T13:17:56.131Z,13.07
2019-03-03T13:20:37.153Z,19.30
2019-03-03T13:23:16.917Z,20.60
2019-03-03T13:26:08.992Z,19.43
2019-03-03T13:28:47.120Z,17.20
2019-03-03T13:31:42.678Z,18.73
2019-03-03T13:34:34.712Z,17.00
2019-03-03T13:37:14.930Z,19.80
2019-03-03T13:40:13.516Z,20.83
2019-03-03T13:43:02.907Z,21.90
2019-03-03T13:45:34.697Z,21.50
2019-03-03T13:48:06.390Z,25.83
2019-03-03T13:50:36.980Z,20.47
2019-03-03T13:53:07.688Z,17.53
2019-03-03T13:55:38.221Z,22.53
2019-03-03T13:58:08.640Z,24.50
2019-03-03T14:00:40.601Z,24.87
2019-03-03T14:03:10.945Z,22.33
2019-03-03T14:05:43.019Z,27.53
2019-03-03T14:08:13.567Z,21.40
2019-03-03T14:10:45.516Z,30.63
2019-03-03T14:13:15.920Z,24.80
2019-03-03T14:15:46.355Z,25.83
2019-03-03T14:18:16.926Z,26.40
2019-03-03T14:20:47.468Z,33.23
2019-03-03T14:23:20.890Z,30.57
2019-03-03T14:25:51.450Z,23.53
2019-03-03T14:28:22.032Z,36.73
2019-03-03T14:30:52.411Z,29.27
2019-03-03T14:33:22.840Z,23.10
2019-03-03T14:35:53.265Z,29.87
2019-03-03T14:38:23.652Z,32.77
2019-03-03T14:40:54.027Z,33.87
2019-03-03T14:43:24.614Z,30.97
2019-03-03T14:45:57.996Z,35.07
2019-03-03T14:48:28.883Z,39.03
2019-03-03T14:50:59.830Z,36.03
2019-03-03T14:53:30.292Z,45.03
2019-03-03T14:56:02.187Z,39.10
2019-03-03T14:58:35.782Z,31.67
2019-03-03T15:01:06.408Z,40.60
2019-03-03T15:03:43.441Z,36.10
2019-03-03T15:06:23.984Z,38.43
2019-03-03T15:08:47.532Z,40.50
2019-03-03T15:11:20.307Z,30.90
2019-03-03T15:13:50.836Z,38.27
2019-03-03T15:16:28.471Z,35.87
2019-03-03T15:18:58.967Z,41.30
2019-03-03T15:21:30.066Z,38.13
2019-03-03T15:24:00.691Z,39.40
2019-03-03T15:26:37.406Z,47.57
2019-03-03T15:29:08.236Z,38.77
2019-03-03T15:31:40.405Z,50.80
2019-03-03T15:34:14.400Z,47.10
2019-03-03T15:36:50.244Z,38.80
2019-03-03T15:39:28.541Z,35.23
2019-03-03T15:41:59.071Z,48.47
2019-03-03T15:44:29.595Z,35.57
2019-03-03T15:47:00.306Z,47.60
2019-03-03T15:49:40.131Z,34.80
2019-03-03T15:52:18.063Z,38.53
2019-03-03T15:54:51.858Z,40.70
2019-03-03T15:57:23.284Z,28.93
2019-03-03T15:59:53.871Z,46.27
2019-03-03T16:02:30.994Z,43.90
2019-03-03T16:05:06.624Z,33.90
2019-03-03T16:07:37.224Z,41.37
2019-03-03T16:10:10.241Z,41.43
2019-03-03T16:12:42.141Z,48.67
2019-03-03T16:15:14.073Z,40.53
2019-03-03T16:17:44.507Z,42.37
2019-03-03T16:20:18.048Z,40.43
2019-03-03T16:22:49.990Z,29.60
2019-03-03T16:25:22.745Z,40.97
2019-03-03T16:27:53.224Z,33.33
2019-03-03T16:30:23.768Z,36.90
2019-03-03T16:32:57.055Z,39.20
2019-03-03T16:35:27.624Z,36.30
2019-03-03T16:37:58.172Z,34.67
2019-03-03T16:40:39.013Z,28.03
2019-03-03T16:43:01.885Z,34.60
2019-03-03T16:45:32.826Z,30.87
2019-03-03T16:48:03.705Z,36.27
2019-03-03T16:50:33.997Z,35.70
2019-03-03T16:53:05.217Z,37.23
2019-03-03T16:55:35.763Z,38.50
2019-03-03T16:58:06.340Z,34.43
2019-03-03T17:00:36.700Z,31.80
2019-03-03T17:03:07.140Z,37.67
2019-03-03T17:05:37.774Z,35.37
2019-03-03T17:08:08.218Z,33.20
2019-03-03T17:10:38.705Z,32.23
2019-03-03T17:13:14.978Z,34.87
2019-03-03T17:15:45.402Z,26.77
2019-03-03T17:18:15.889Z,37.80
2019-03-03T17:20:46.376Z,27.83
2019-03-03T17:23:16.973Z,25.03
2019-03-03T17:25:47.476Z,29.17
2019-03-03T17:28:17.905Z,34.47
2019-03-03T17:30:48.363Z,42.33
2019-03-03T17:33:18.742Z,24.83
2019-03-03T17:35:49.183Z,27.47
2019-03-03T17:38:19.774Z,23.07
2019-03-03T17:40:50.151Z,26.80
2019-03-03T17:43:20.567Z,30.27
2019-03-03T17:45:50.966Z,20.27
2019-03-03T17:48:21.424Z,24.03
2019-03-03T17:50:51.853Z,23.67
2019-03-03T17:53:23.232Z,25.07
2019-03-03T17:55:56.190Z,24.20
2019-03-03T17:58:29.712Z,24.00
2019-03-03T18:01:00.151Z,27.93
2019-03-03T18:03:30.615Z,27.73
2019-03-03T18:06:00.998Z,28.20
2019-03-03T18:08:31.483Z,21.83
2019-03-03T18:11:04.211Z,24.57
2019-03-03T18:13:34.602Z,18.43
2019-03-03T18:16:04.954Z,20.80
2019-03-03T18:18:35.321Z,25.00
2019-03-03T18:21:05.783Z,24.23
2019-03-03T18:23:37.686Z,24.73
2019-03-03T18:26:08.040Z,21.27
2019-03-03T18:28:38.881Z,25.97
2019-03-03T18:31:09.512Z,23.00
2019-03-03T18:33:40.225Z,27.83
2019-03-03T18:36:11.758Z,30.27
2019-03-03T18:38:42.193Z,29.47
2019-03-03T18:41:12.758Z,30.87
2019-03-03T18:43:43.292Z,26.60
2019-03-03T18:46:29.435Z,25.47
2019-03-03T18:49:00.100Z,28.77
2019-03-03T18:51:33.637Z,29.80
2019-03-03T18:54:04.073Z,32.07
2019-03-03T18:56:34.854Z,25.37
2019-03-03T18:59:05.315Z,24.80
2019-03-03T19:01:35.695Z,23.77
2019-03-03T19:04:06.017Z,25.30
2019-03-03T19:06:36.462Z,24.20
2019-03-03T19:09:12.812Z,24.13
2019-03-03T19:11:43.828Z,28.97
2019-03-03T19:14:14.257Z,25.73
2019-03-03T19:16:44.591Z,31.00
2019-03-03T19:19:14.973Z,32.87
2019-03-03T19:21:45.257Z,32.97
2019-03-03T19:24:15.582Z,36.00
2019-03-03T19:26:45.999Z,31.43
2019-03-03T19:29:17.041Z,33.30
2019-03-03T19:31:48.422Z,27.37
2019-03-03T19:34:19.515Z,32.23
2019-03-03T19:36:49.877Z,33.20
2019-03-03T19:39:20.315Z,25.73
2019-03-03T19:41:50.877Z,25.30
2019-03-03T19:44:24.444Z,26.57
2019-03-03T19:46:54.734Z,29.27
2019-03-03T19:49:25.036Z,28.70
2019-03-03T19:51:55.521Z,25.47
2019-03-03T19:54:27.512Z,27.57
2019-03-03T19:56:57.869Z,23.63
2019-03-03T19:59:28.394Z,26.07
2019-03-03T20:01:58.760Z,20.33
2019-03-03T20:04:29.123Z,29.23
2019-03-03T20:06:59.491Z,24.67
2019-03-03T20:09:30.560Z,22.90
2019-03-03T20:12:00.978Z,21.00
2019-03-03T20:14:31.349Z,18.03
2019-03-03T20:17:02.788Z,19.53
2019-03-03T20:19:34.739Z,19.17
2019-03-03T20:22:05.065Z,20.27
2019-03-03T20:24:37.117Z,10.40
2019-03-03T20:27:07.375Z,13.30
2019-03-03T20:29:37.839Z,9.93
2019-03-03T20:32:08.375Z,12.93
2019-03-03T20:34:38.841Z,10.27
2019-03-03T20:37:10.157Z,14.10
2019-03-03T20:39:41.327Z,11.03
2019-03-03T20:42:13.636Z,14.40
2019-03-03T20:44:45.271Z,11.17
2019-03-03T20:47:15.632Z,12.50
2019-03-03T20:49:46.046Z,17.53
2019-03-03T20:52:16.504Z,10.37
2019-03-03T20:54:46.790Z,10.40
2019-03-03T20:57:17.279Z,11.90
2019-03-03T20:59:47.622Z,8.33
2019-03-03T21:02:18.564Z,10.33
2019-03-03T21:04:48.990Z,10.20
2019-03-03T21:07:19.886Z,12.13
2019-03-03T21:09:50.184Z,10.07
2019-03-03T21:12:20.474Z,12.73
2019-03-03T21:14:50.828Z,13.93
2019-03-03T21:17:21.258Z,10.53
2019-03-03T21:19:51.692Z,10.60
2019-03-03T21:22:22.006Z,9.33
2019-03-03T21:24:52.611Z,15.10
2019-03-03T21:27:22.921Z,7.63
2019-03-03T21:29:53.382Z,12.80
2019-03-03T21:32:23.852Z,9.53
2019-03-03T21:34:54.360Z,8.87
2019-03-03T21:37:24.705Z,10.63
2019-03-03T21:39:55.001Z,13.87
2019-03-03T21:42:25.727Z,11.57
2019-03-03T21:44:56.234Z,12.50
2019-03-03T21:47:27.765Z,10.10
2019-03-03T21:49:58.247Z,8.77
2019-03-03T21:52:28.580Z,13.83
2019-03-03T21:54:58.903Z,17.17
2019-03-03T21:57:29.837Z,15.80
2019-03-03T22:00:00.325Z,9.47
2019-03-03T22:02:31.475Z,10.03
2019-03-03T22:05:02.940Z,11.73
2019-03-03T22:07:35.409Z,11.20
2019-03-03T22:10:06.237Z,15.73
2019-03-03T22:12:37.630Z,12.83
2019-03-03T22:15:09.577Z,8.00
2019-03-03T22:17:47.331Z,12.93
2019-03-03T22:20:17.680Z,14.93
2019-03-03T22:22:48.069Z,10.27
2019-03-03T22:25:18.411Z,14.97
2019-03-03T22:27:58.227Z,10.00
2019-03-03T22:30:29.290Z,10.17
2019-03-03T22:32:59.713Z,13.53
2019-03-03T22:35:30.171Z,12.07
2019-03-03T22:38:00.669Z,11.13
2019-03-03T22:40:36.218Z,13.13
2019-03-03T22:43:09.573Z,13.17
2019-03-03T22:45:41.194Z,12.60
2019-03-03T22:48:11.574Z,9.50
2019-03-03T22:50:43.646Z,9.43
2019-03-03T22:53:14.447Z,13.67
2019-03-03T22:55:44.926Z,10.27
2019-03-03T22:58:16.714Z,9.83
2019-03-03T23:01:18.564Z,11.63
2019-03-03T23:04:25.965Z,11.00
2019-03-03T23:07:11.063Z,11.73
2019-03-03T23:10:19.384Z,8.50
2019-03-03T23:13:05.064Z,6.63
2019-03-03T23:16:00.090Z,9.37
2019-03-03T23:19:06.121Z,8.33
2019-03-03T23:22:24.005Z,11.80
2019-03-03T23:25:44.943Z,8.60
2019-03-03T23:28:17.240Z,8.70
2019-03-03T23:30:47.943Z,7.10
2019-03-03T23:33:19.401Z,10.03
2019-03-03T23:35:50.143Z,8.30
2019-03-03T23:38:22.179Z,12.73
2019-03-03T23:40:52.545Z,11.53
2019-03-03T23:43:23.296Z,14.70
2019-03-03T23:45:53.828Z,11.07
2019-03-03T23:48:24.306Z,11.87
2019-03-03T23:50:54.641Z,8.47
2019-03-03T23:53:26.125Z,13.10
2019-03-03T23:55:56.492Z,10.70
2019-03-03T23:58:26.965Z,11.13
